sensor_id;sensor_type;location;lat;lon;timestamp;temperature;humidity
69503;SHT31;56704;54.242;12.442;2022-08-18T00:01:39;21.71;73.88
69503;SHT31;56704;54.242;12.442;2022-08-18T00:04:06;21.73;74.23
69503;SHT31;56704;54.242;12.442;2022-08-18T00:06:33;21.74;74.12
69503;SHT31;56704;54.242;12.442;2022-08-18T00:09:03;21.74;74.27
69503;SHT31;56704;54.242;12.442;2022-08-18T00:11:35;21.75;74.48
69503;SHT31;56704;54.242;12.442;2022-08-18T00:14:02;21.75;74.52
69503;SHT31;56704;54.242;12.442;2022-08-18T00:16:29;21.75;75.71
69503;SHT31;56704;54.242;12.442;2022-08-18T00:18:56;21.73;75.89
69503;SHT31;56704;54.242;12.442;2022-08-18T00:21:22;21.69;75.39
69503;SHT31;56704;54.242;12.442;2022-08-18T00:23:49;21.65;75.90
69503;SHT31;56704;54.242;12.442;2022-08-18T00:26:15;21.67;75.59
69503;SHT31;56704;54.242;12.442;2022-08-18T00:28:43;21.65;76.63
69503;SHT31;56704;54.242;12.442;2022-08-18T00:31:10;21.62;76.14
69503;SHT31;56704;54.242;12.442;2022-08-18T00:33:36;21.65;76.35
69503;SHT31;56704;54.242;12.442;2022-08-18T00:36:03;21.67;76.26
69503;SHT31;56704;54.242;12.442;2022-08-18T00:38:30;21.68;76.99
69503;SHT31;56704;54.242;12.442;2022-08-18T00:40:57;21.68;76.64
69503;SHT31;56704;54.242;12.442;2022-08-18T00:43:26;21.73;76.37
69503;SHT31;56704;54.242;12.442;2022-08-18T00:45:57;21.75;76.43
69503;SHT31;56704;54.242;12.442;2022-08-18T00:48:24;21.77;76.90
69503;SHT31;56704;54.242;12.442;2022-08-18T00:50:53;21.75;76.53
69503;SHT31;56704;54.242;12.442;2022-08-18T00:53:23;21.77;76.55
69503;SHT31;56704;54.242;12.442;2022-08-18T00:55:53;21.82;77.18
69503;SHT31;56704;54.242;12.442;2022-08-18T00:58:24;21.79;77.33
69503;SHT31;56704;54.242;12.442;2022-08-18T01:00:51;21.79;77.46
69503;SHT31;56704;54.242;12.442;2022-08-18T01:03:21;21.84;78.09
69503;SHT31;56704;54.242;12.442;2022-08-18T01:05:52;21.81;77.36
69503;SHT31;56704;54.242;12.442;2022-08-18T01:08:21;21.84;76.95
69503;SHT31;56704;54.242;12.442;2022-08-18T01:10:48;21.85;77.09
69503;SHT31;56704;54.242;12.442;2022-08-18T01:13:15;21.88;76.43
69503;SHT31;56704;54.242;12.442;2022-08-18T01:15:42;21.96;75.99
69503;SHT31;56704;54.242;12.442;2022-08-18T01:18:11;22.09;75.28
69503;SHT31;56704;54.242;12.442;2022-08-18T01:21:14;22.09;73.12
69503;SHT31;56704;54.242;12.442;2022-08-18T01:24:03;22.04;73.71
69503;SHT31;56704;54.242;12.442;2022-08-18T01:26:33;21.95;74.14
69503;SHT31;56704;54.242;12.442;2022-08-18T01:29:04;21.94;74.14
69503;SHT31;56704;54.242;12.442;2022-08-18T01:31:35;21.89;74.30
69503;SHT31;56704;54.242;12.442;2022-08-18T01:34:03;21.95;74.47
69503;SHT31;56704;54.242;12.442;2022-08-18T01:36:30;21.95;73.81
69503;SHT31;56704;54.242;12.442;2022-08-18T01:38:59;21.91;74.02
69503;SHT31;56704;54.242;12.442;2022-08-18T01:41:27;21.81;73.72
69503;SHT31;56704;54.242;12.442;2022-08-18T01:43:53;21.77;73.22
69503;SHT31;56704;54.242;12.442;2022-08-18T01:46:20;21.65;73.20
69503;SHT31;56704;54.242;12.442;2022-08-18T01:48:47;21.64;73.37
69503;SHT31;56704;54.242;12.442;2022-08-18T01:51:15;21.62;73.19
69503;SHT31;56704;54.242;12.442;2022-08-18T01:53:42;21.54;73.08
69503;SHT31;56704;54.242;12.442;2022-08-18T01:56:09;21.46;72.85
69503;SHT31;56704;54.242;12.442;2022-08-18T01:58:37;21.44;72.74
69503;SHT31;56704;54.242;12.442;2022-08-18T02:01:04;21.40;72.38
69503;SHT31;56704;54.242;12.442;2022-08-18T02:03:33;21.36;72.12
69503;SHT31;56704;54.242;12.442;2022-08-18T02:06:04;21.33;72.36
69503;SHT31;56704;54.242;12.442;2022-08-18T02:08:31;21.27;72.44
69503;SHT31;56704;54.242;12.442;2022-08-18T02:10:58;21.27;72.64
69503;SHT31;56704;54.242;12.442;2022-08-18T02:13:24;21.30;72.97
69503;SHT31;56704;54.242;12.442;2022-08-18T02:15:52;21.33;73.18
69503;SHT31;56704;54.242;12.442;2022-08-18T02:18:24;21.33;73.44
69503;SHT31;56704;54.242;12.442;2022-08-18T02:20:52;21.34;73.60
69503;SHT31;56704;54.242;12.442;2022-08-18T02:23:18;21.33;73.69
69503;SHT31;56704;54.242;12.442;2022-08-18T02:25:45;21.28;73.99
69503;SHT31;56704;54.242;12.442;2022-08-18T02:28:12;21.26;74.46
69503;SHT31;56704;54.242;12.442;2022-08-18T02:30:38;21.22;74.84
69503;SHT31;56704;54.242;12.442;2022-08-18T02:33:08;21.17;74.79
69503;SHT31;56704;54.242;12.442;2022-08-18T02:35:36;21.17;74.96
69503;SHT31;56704;54.242;12.442;2022-08-18T02:38:05;21.16;75.09
69503;SHT31;56704;54.242;12.442;2022-08-18T02:40:33;21.08;74.98
69503;SHT31;56704;54.242;12.442;2022-08-18T02:43:05;21.03;75.07
69503;SHT31;56704;54.242;12.442;2022-08-18T02:45:31;20.97;74.95
69503;SHT31;56704;54.242;12.442;2022-08-18T02:47:58;20.93;74.87
69503;SHT31;56704;54.242;12.442;2022-08-18T02:50:27;20.87;74.84
69503;SHT31;56704;54.242;12.442;2022-08-18T02:52:53;20.83;74.83
69503;SHT31;56704;54.242;12.442;2022-08-18T02:55:20;20.77;74.79
69503;SHT31;56704;54.242;12.442;2022-08-18T02:57:47;20.75;74.78
69503;SHT31;56704;54.242;12.442;2022-08-18T03:00:15;20.75;74.81
69503;SHT31;56704;54.242;12.442;2022-08-18T03:02:44;20.71;74.65
69503;SHT31;56704;54.242;12.442;2022-08-18T03:05:11;20.65;74.65
69503;SHT31;56704;54.242;12.442;2022-08-18T03:07:39;20.64;74.61
69503;SHT31;56704;54.242;12.442;2022-08-18T03:10:06;20.59;74.63
69503;SHT31;56704;54.242;12.442;2022-08-18T03:12:34;20.56;74.55
69503;SHT31;56704;54.242;12.442;2022-08-18T03:15:01;20.55;74.49
69503;SHT31;56704;54.242;12.442;2022-08-18T03:17:27;20.52;74.41
69503;SHT31;56704;54.242;12.442;2022-08-18T03:19:56;20.51;74.40
69503;SHT31;56704;54.242;12.442;2022-08-18T03:22:22;20.52;74.46
69503;SHT31;56704;54.242;12.442;2022-08-18T03:24:51;20.49;74.38
69503;SHT31;56704;54.242;12.442;2022-08-18T03:27:18;20.46;74.40
69503;SHT31;56704;54.242;12.442;2022-08-18T03:29:44;20.42;74.42
69503;SHT31;56704;54.242;12.442;2022-08-18T03:32:11;20.44;74.60
69503;SHT31;56704;54.242;12.442;2022-08-18T03:34:37;20.39;74.60
69503;SHT31;56704;54.242;12.442;2022-08-18T03:37:04;20.37;74.62
69503;SHT31;56704;54.242;12.442;2022-08-18T03:39:30;20.35;74.71
69503;SHT31;56704;54.242;12.442;2022-08-18T03:41:58;20.35;74.91
69503;SHT31;56704;54.242;12.442;2022-08-18T03:44:26;20.31;74.91
69503;SHT31;56704;54.242;12.442;2022-08-18T03:46:54;20.29;75.12
69503;SHT31;56704;54.242;12.442;2022-08-18T03:49:21;20.29;75.34
69503;SHT31;56704;54.242;12.442;2022-08-18T03:51:48;20.28;75.36
69503;SHT31;56704;54.242;12.442;2022-08-18T03:54:17;20.27;75.45
69503;SHT31;56704;54.242;12.442;2022-08-18T03:56:45;20.29;75.62
69503;SHT31;56704;54.242;12.442;2022-08-18T03:59:15;20.35;75.44
69503;SHT31;56704;54.242;12.442;2022-08-18T04:01:42;20.35;75.46
69503;SHT31;56704;54.242;12.442;2022-08-18T04:04:12;20.37;75.49
69503;SHT31;56704;54.242;12.442;2022-08-18T04:06:41;20.35;75.60
69503;SHT31;56704;54.242;12.442;2022-08-18T04:09:10;20.32;75.71
69503;SHT31;56704;54.242;12.442;2022-08-18T04:11:38;20.29;75.67
69503;SHT31;56704;54.242;12.442;2022-08-18T04:14:08;20.25;75.84
69503;SHT31;56704;54.242;12.442;2022-08-18T04:16:37;20.27;75.80
69503;SHT31;56704;54.242;12.442;2022-08-18T04:19:04;20.24;75.92
69503;SHT31;56704;54.242;12.442;2022-08-18T04:21:32;20.22;76.01
69503;SHT31;56704;54.242;12.442;2022-08-18T04:24:00;20.18;76.17
69503;SHT31;56704;54.242;12.442;2022-08-18T04:26:29;20.14;76.29
69503;SHT31;56704;54.242;12.442;2022-08-18T04:28:56;20.14;76.42
69503;SHT31;56704;54.242;12.442;2022-08-18T04:31:25;20.11;76.40
69503;SHT31;56704;54.242;12.442;2022-08-18T04:33:55;20.10;76.42
69503;SHT31;56704;54.242;12.442;2022-08-18T04:36:22;20.06;76.59
69503;SHT31;56704;54.242;12.442;2022-08-18T04:38:49;20.07;76.67
69503;SHT31;56704;54.242;12.442;2022-08-18T04:41:16;20.06;76.68
69503;SHT31;56704;54.242;12.442;2022-08-18T04:43:43;20.08;76.73
69503;SHT31;56704;54.242;12.442;2022-08-18T04:46:10;20.07;76.77
69503;SHT31;56704;54.242;12.442;2022-08-18T04:48:39;20.10;76.97
69503;SHT31;56704;54.242;12.442;2022-08-18T04:51:09;20.10;76.87
69503;SHT31;56704;54.242;12.442;2022-08-18T04:53:37;20.10;77.04
69503;SHT31;56704;54.242;12.442;2022-08-18T04:56:13;20.07;77.03
69503;SHT31;56704;54.242;12.442;2022-08-18T04:58:43;20.08;76.97
69503;SHT31;56704;54.242;12.442;2022-08-18T05:01:10;20.11;77.28
69503;SHT31;56704;54.242;12.442;2022-08-18T05:03:36;20.08;77.16
69503;SHT31;56704;54.242;12.442;2022-08-18T05:06:03;20.08;77.28
69503;SHT31;56704;54.242;12.442;2022-08-18T05:08:32;20.13;77.40
69503;SHT31;56704;54.242;12.442;2022-08-18T05:10:59;20.11;77.45
69503;SHT31;56704;54.242;12.442;2022-08-18T05:13:26;20.14;77.66
69503;SHT31;56704;54.242;12.442;2022-08-18T05:15:53;20.18;77.65
69503;SHT31;56704;54.242;12.442;2022-08-18T05:18:21;20.21;77.75
69503;SHT31;56704;54.242;12.442;2022-08-18T05:20:49;20.22;77.75
69503;SHT31;56704;54.242;12.442;2022-08-18T05:23:16;20.25;77.79
69503;SHT31;56704;54.242;12.442;2022-08-18T05:25:45;20.28;77.77
69503;SHT31;56704;54.242;12.442;2022-08-18T05:28:11;20.31;77.99
69503;SHT31;56704;54.242;12.442;2022-08-18T05:30:38;20.35;78.19
69503;SHT31;56704;54.242;12.442;2022-08-18T05:33:05;20.41;78.18
69503;SHT31;56704;54.242;12.442;2022-08-18T05:35:37;20.49;78.37
69503;SHT31;56704;54.242;12.442;2022-08-18T05:38:20;20.52;78.27
69503;SHT31;56704;54.242;12.442;2022-08-18T05:41:03;20.59;78.44
69503;SHT31;56704;54.242;12.442;2022-08-18T05:43:31;20.65;78.36
69503;SHT31;56704;54.242;12.442;2022-08-18T05:45:59;20.73;78.63
69503;SHT31;56704;54.242;12.442;2022-08-18T05:48:26;20.76;78.49
69503;SHT31;56704;54.242;12.442;2022-08-18T05:50:54;20.83;78.48
69503;SHT31;56704;54.242;12.442;2022-08-18T05:53:21;20.87;78.41
69503;SHT31;56704;54.242;12.442;2022-08-18T05:56:10;20.96;78.33
69503;SHT31;56704;54.242;12.442;2022-08-18T05:58:56;21.00;78.32
69503;SHT31;56704;54.242;12.442;2022-08-18T06:01:26;21.08;78.34
69503;SHT31;56704;54.242;12.442;2022-08-18T06:03:56;21.16;78.30
69503;SHT31;56704;54.242;12.442;2022-08-18T06:06:27;21.23;78.21
69503;SHT31;56704;54.242;12.442;2022-08-18T06:08:57;21.34;78.01
69503;SHT31;56704;54.242;12.442;2022-08-18T06:11:29;21.41;78.03
69503;SHT31;56704;54.242;12.442;2022-08-18T06:13:57;21.51;78.09
69503;SHT31;56704;54.242;12.442;2022-08-18T06:16:34;21.65;77.92
69503;SHT31;56704;54.242;12.442;2022-08-18T06:19:16;21.71;77.95
69503;SHT31;56704;54.242;12.442;2022-08-18T06:21:50;21.81;77.86
69503;SHT31;56704;54.242;12.442;2022-08-18T06:24:27;21.91;77.79
69503;SHT31;56704;54.242;12.442;2022-08-18T06:27:13;22.05;77.48
69503;SHT31;56704;54.242;12.442;2022-08-18T06:29:52;22.13;77.48
69503;SHT31;56704;54.242;12.442;2022-08-18T06:32:28;22.26;77.30
69503;SHT31;56704;54.242;12.442;2022-08-18T06:35:07;22.40;76.75
69503;SHT31;56704;54.242;12.442;2022-08-18T06:37:41;22.64;76.33
69503;SHT31;56704;54.242;12.442;2022-08-18T06:40:24;22.91;75.66
69503;SHT31;56704;54.242;12.442;2022-08-18T06:42:53;23.11;75.03
69503;SHT31;56704;54.242;12.442;2022-08-18T06:45:25;23.24;74.75
69503;SHT31;56704;54.242;12.442;2022-08-18T06:47:58;23.39;74.57
69503;SHT31;56704;54.242;12.442;2022-08-18T06:50:33;23.48;74.27
69503;SHT31;56704;54.242;12.442;2022-08-18T06:53:02;23.62;74.13
69503;SHT31;56704;54.242;12.442;2022-08-18T06:55:35;23.72;73.86
69503;SHT31;56704;54.242;12.442;2022-08-18T06:58:04;23.89;73.46
69503;SHT31;56704;54.242;12.442;2022-08-18T07:00:33;24.06;72.87
69503;SHT31;56704;54.242;12.442;2022-08-18T07:03:05;24.23;72.72
69503;SHT31;56704;54.242;12.442;2022-08-18T07:05:34;24.37;72.34
69503;SHT31;56704;54.242;12.442;2022-08-18T07:08:20;24.44;71.96
69503;SHT31;56704;54.242;12.442;2022-08-18T07:10:53;24.38;71.99
69503;SHT31;56704;54.242;12.442;2022-08-18T07:13:23;24.60;71.70
69503;SHT31;56704;54.242;12.442;2022-08-18T07:15:51;24.72;71.43
69503;SHT31;56704;54.242;12.442;2022-08-18T07:18:24;24.81;70.67
69503;SHT31;56704;54.242;12.442;2022-08-18T07:20:53;24.79;70.71
69503;SHT31;56704;54.242;12.442;2022-08-18T07:23:24;24.91;70.67
69503;SHT31;56704;54.242;12.442;2022-08-18T07:25:59;25.11;70.33
69503;SHT31;56704;54.242;12.442;2022-08-18T07:28:29;25.36;70.00
69503;SHT31;56704;54.242;12.442;2022-08-18T07:31:35;25.57;69.63
69503;SHT31;56704;54.242;12.442;2022-08-18T07:34:07;25.54;69.05
69503;SHT31;56704;54.242;12.442;2022-08-18T07:36:41;25.67;69.15
69503;SHT31;56704;54.242;12.442;2022-08-18T07:39:14;25.80;68.52
69503;SHT31;56704;54.242;12.442;2022-08-18T07:41:51;25.95;68.48
69503;SHT31;56704;54.242;12.442;2022-08-18T07:44:27;26.08;67.82
69503;SHT31;56704;54.242;12.442;2022-08-18T07:46:58;26.21;67.64
69503;SHT31;56704;54.242;12.442;2022-08-18T07:49:31;26.39;67.38
69503;SHT31;56704;54.242;12.442;2022-08-18T07:52:03;26.56;66.00
69503;SHT31;56704;54.242;12.442;2022-08-18T07:54:39;26.68;66.07
69503;SHT31;56704;54.242;12.442;2022-08-18T07:57:18;26.84;65.45
69503;SHT31;56704;54.242;12.442;2022-08-18T07:59:53;26.93;64.84
69503;SHT31;56704;54.242;12.442;2022-08-18T08:02:30;27.11;65.23
69503;SHT31;56704;54.242;12.442;2022-08-18T08:05:06;27.40;64.77
69503;SHT31;56704;54.242;12.442;2022-08-18T08:07:40;27.51;62.70
69503;SHT31;56704;54.242;12.442;2022-08-18T08:10:22;27.65;62.65
69503;SHT31;56704;54.242;12.442;2022-08-18T08:12:54;27.44;62.82
69503;SHT31;56704;54.242;12.442;2022-08-18T08:15:34;27.40;62.73
69503;SHT31;56704;54.242;12.442;2022-08-18T08:18:10;27.45;62.13
69503;SHT31;56704;54.242;12.442;2022-08-18T08:20:43;27.51;62.55
69503;SHT31;56704;54.242;12.442;2022-08-18T08:23:17;27.75;61.70
69503;SHT31;56704;54.242;12.442;2022-08-18T08:25:55;27.89;61.29
69503;SHT31;56704;54.242;12.442;2022-08-18T08:28:32;28.06;61.58
69503;SHT31;56704;54.242;12.442;2022-08-18T08:31:08;28.20;60.30
69503;SHT31;56704;54.242;12.442;2022-08-18T08:33:39;28.33;60.45
69503;SHT31;56704;54.242;12.442;2022-08-18T08:36:12;27.85;60.48
69503;SHT31;56704;54.242;12.442;2022-08-18T08:38:43;27.95;60.47
69503;SHT31;56704;54.242;12.442;2022-08-18T08:41:14;27.79;60.98
69503;SHT31;56704;54.242;12.442;2022-08-18T08:43:44;28.14;60.84
69503;SHT31;56704;54.242;12.442;2022-08-18T08:46:16;28.35;60.24
69503;SHT31;56704;54.242;12.442;2022-08-18T08:48:48;28.36;58.78
69503;SHT31;56704;54.242;12.442;2022-08-18T08:51:26;28.39;58.68
69503;SHT31;56704;54.242;12.442;2022-08-18T08:53:57;27.99;58.77
69503;SHT31;56704;54.242;12.442;2022-08-18T08:56:28;28.06;59.22
69503;SHT31;56704;54.242;12.442;2022-08-18T08:58:58;28.17;58.87
69503;SHT31;56704;54.242;12.442;2022-08-18T09:01:30;28.29;59.05
69503;SHT31;56704;54.242;12.442;2022-08-18T09:04:03;28.47;58.59
69503;SHT31;56704;54.242;12.442;2022-08-18T09:06:39;28.44;58.76
69503;SHT31;56704;54.242;12.442;2022-08-18T09:09:21;28.65;57.73
69503;SHT31;56704;54.242;12.442;2022-08-18T09:12:15;28.75;57.86
69503;SHT31;56704;54.242;12.442;2022-08-18T09:15:12;28.90;56.31
69503;SHT31;56704;54.242;12.442;2022-08-18T09:18:10;28.51;57.59
69503;SHT31;56704;54.242;12.442;2022-08-18T09:20:52;28.49;57.30
69503;SHT31;56704;54.242;12.442;2022-08-18T09:23:24;28.68;57.54
69503;SHT31;56704;54.242;12.442;2022-08-18T09:25:53;28.82;56.68
69503;SHT31;56704;54.242;12.442;2022-08-18T09:28:22;28.88;56.76
69503;SHT31;56704;54.242;12.442;2022-08-18T09:31:16;28.94;55.85
69503;SHT31;56704;54.242;12.442;2022-08-18T09:34:08;29.15;55.58
69503;SHT31;56704;54.242;12.442;2022-08-18T09:36:46;29.29;54.69
69503;SHT31;56704;54.242;12.442;2022-08-18T09:39:22;29.12;54.94
69503;SHT31;56704;54.242;12.442;2022-08-18T09:42:12;29.55;54.73
69503;SHT31;56704;54.242;12.442;2022-08-18T09:45:04;29.80;54.67
69503;SHT31;56704;54.242;12.442;2022-08-18T09:47:57;30.10;53.70
69503;SHT31;56704;54.242;12.442;2022-08-18T09:53:51;30.21;52.53
69503;SHT31;56704;54.242;12.442;2022-08-18T10:05:25;29.62;54.87
69503;SHT31;56704;54.242;12.442;2022-08-18T10:08:26;29.84;53.51
69503;SHT31;56704;54.242;12.442;2022-08-18T10:10:57;29.91;53.44
69503;SHT31;56704;54.242;12.442;2022-08-18T10:13:28;29.89;54.09
69503;SHT31;56704;54.242;12.442;2022-08-18T10:16:06;29.83;54.16
69503;SHT31;56704;54.242;12.442;2022-08-18T10:18:56;29.72;54.52
69503;SHT31;56704;54.242;12.442;2022-08-18T10:21:28;29.31;54.60
69503;SHT31;56704;54.242;12.442;2022-08-18T10:23:58;29.55;55.33
69503;SHT31;56704;54.242;12.442;2022-08-18T10:27:09;29.81;54.74
69503;SHT31;56704;54.242;12.442;2022-08-18T10:29:54;29.62;54.11
69503;SHT31;56704;54.242;12.442;2022-08-18T10:35:05;29.60;54.30
69503;SHT31;56704;54.242;12.442;2022-08-18T10:37:52;29.81;54.15
69503;SHT31;56704;54.242;12.442;2022-08-18T10:40:21;29.70;52.86
69503;SHT31;56704;54.242;12.442;2022-08-18T10:42:51;29.29;53.68
69503;SHT31;56704;54.242;12.442;2022-08-18T10:45:22;29.31;53.75
69503;SHT31;56704;54.242;12.442;2022-08-18T10:47:58;29.73;54.33
69503;SHT31;56704;54.242;12.442;2022-08-18T10:50:28;30.24;52.96
69503;SHT31;56704;54.242;12.442;2022-08-18T10:53:03;30.78;51.33
69503;SHT31;56704;54.242;12.442;2022-08-18T10:55:48;30.72;50.41
69503;SHT31;56704;54.242;12.442;2022-08-18T10:58:39;30.96;49.98
69503;SHT31;56704;54.242;12.442;2022-08-18T11:01:17;31.27;49.89
69503;SHT31;56704;54.242;12.442;2022-08-18T11:04:04;31.67;47.91
69503;SHT31;56704;54.242;12.442;2022-08-18T11:06:42;31.61;47.42
69503;SHT31;56704;54.242;12.442;2022-08-18T11:09:17;31.70;47.73
69503;SHT31;56704;54.242;12.442;2022-08-18T11:11:50;32.05;47.07
69503;SHT31;56704;54.242;12.442;2022-08-18T11:14:41;32.60;46.66
69503;SHT31;56704;54.242;12.442;2022-08-18T11:17:17;33.21;44.71
69503;SHT31;56704;54.242;12.442;2022-08-18T11:19:48;33.59;44.51
69503;SHT31;56704;54.242;12.442;2022-08-18T11:22:21;33.61;42.67
69503;SHT31;56704;54.242;12.442;2022-08-18T11:24:48;33.43;44.16
69503;SHT31;56704;54.242;12.442;2022-08-18T11:27:20;33.41;41.67
69503;SHT31;56704;54.242;12.442;2022-08-18T11:29:48;33.53;43.49
69503;SHT31;56704;54.242;12.442;2022-08-18T11:32:19;33.74;41.83
69503;SHT31;56704;54.242;12.442;2022-08-18T11:34:49;33.86;43.55
69503;SHT31;56704;54.242;12.442;2022-08-18T11:37:26;34.13;44.01
69503;SHT31;56704;54.242;12.442;2022-08-18T11:39:56;34.23;43.02
69503;SHT31;56704;54.242;12.442;2022-08-18T11:42:32;34.10;42.86
69503;SHT31;56704;54.242;12.442;2022-08-18T11:45:11;34.09;43.34
69503;SHT31;56704;54.242;12.442;2022-08-18T11:47:58;34.03;46.00
69503;SHT31;56704;54.242;12.442;2022-08-18T11:50:27;33.59;45.82
69503;SHT31;56704;54.242;12.442;2022-08-18T11:52:55;33.07;46.75
69503;SHT31;56704;54.242;12.442;2022-08-18T11:55:28;32.77;47.76
69503;SHT31;56704;54.242;12.442;2022-08-18T11:58:01;32.49;48.30
69503;SHT31;56704;54.242;12.442;2022-08-18T12:00:55;32.26;49.00
69503;SHT31;56704;54.242;12.442;2022-08-18T12:03:33;32.09;49.66
69503;SHT31;56704;54.242;12.442;2022-08-18T12:06:10;32.08;50.05
69503;SHT31;56704;54.242;12.442;2022-08-18T12:08:50;32.07;50.16
69503;SHT31;56704;54.242;12.442;2022-08-18T12:11:19;32.05;50.63
69503;SHT31;56704;54.242;12.442;2022-08-18T12:13:57;31.82;50.03
69503;SHT31;56704;54.242;12.442;2022-08-18T12:16:37;31.81;50.65
69503;SHT31;56704;54.242;12.442;2022-08-18T12:19:07;32.12;49.27
69503;SHT31;56704;54.242;12.442;2022-08-18T12:21:37;32.18;48.81
69503;SHT31;56704;54.242;12.442;2022-08-18T12:24:05;32.25;48.43
69503;SHT31;56704;54.242;12.442;2022-08-18T12:26:33;32.09;49.44
69503;SHT31;56704;54.242;12.442;2022-08-18T12:29:01;32.02;49.85
69503;SHT31;56704;54.242;12.442;2022-08-18T12:31:27;31.91;50.12
69503;SHT31;56704;54.242;12.442;2022-08-18T12:33:54;31.67;50.63
69503;SHT31;56704;54.242;12.442;2022-08-18T12:36:28;31.53;50.43
69503;SHT31;56704;54.242;12.442;2022-08-18T12:38:55;31.40;50.44
69503;SHT31;56704;54.242;12.442;2022-08-18T12:41:22;31.40;50.82
69503;SHT31;56704;54.242;12.442;2022-08-18T12:43:48;31.66;51.68
69503;SHT31;56704;54.242;12.442;2022-08-18T12:46:16;31.68;49.43
69503;SHT31;56704;54.242;12.442;2022-08-18T12:48:43;31.50;50.14
69503;SHT31;56704;54.242;12.442;2022-08-18T12:51:09;31.40;50.51
69503;SHT31;56704;54.242;12.442;2022-08-18T12:53:37;31.34;51.26
69503;SHT31;56704;54.242;12.442;2022-08-18T12:56:05;31.29;51.71
69503;SHT31;56704;54.242;12.442;2022-08-18T12:58:32;31.29;52.31
69503;SHT31;56704;54.242;12.442;2022-08-18T13:00:59;31.23;52.68
69503;SHT31;56704;54.242;12.442;2022-08-18T13:03:27;30.96;52.83
69503;SHT31;56704;54.242;12.442;2022-08-18T13:05:54;30.78;53.85
69503;SHT31;56704;54.242;12.442;2022-08-18T13:08:21;30.89;53.50
69503;SHT31;56704;54.242;12.442;2022-08-18T13:10:48;30.83;52.81
69503;SHT31;56704;54.242;12.442;2022-08-18T13:13:16;30.98;52.00
69503;SHT31;56704;54.242;12.442;2022-08-18T13:15:44;30.92;51.38
69503;SHT31;56704;54.242;12.442;2022-08-18T13:18:11;30.58;52.68
69503;SHT31;56704;54.242;12.442;2022-08-18T13:20:40;30.47;53.51
69503;SHT31;56704;54.242;12.442;2022-08-18T13:23:07;30.38;53.30
69503;SHT31;56704;54.242;12.442;2022-08-18T13:25:34;30.37;53.63
69503;SHT31;56704;54.242;12.442;2022-08-18T13:28:01;30.39;53.59
69503;SHT31;56704;54.242;12.442;2022-08-18T13:30:27;30.47;53.40
69503;SHT31;56704;54.242;12.442;2022-08-18T13:32:54;30.41;53.68
69503;SHT31;56704;54.242;12.442;2022-08-18T13:35:20;30.48;53.11
69503;SHT31;56704;54.242;12.442;2022-08-18T13:37:48;30.57;52.69
69503;SHT31;56704;54.242;12.442;2022-08-18T13:40:15;30.52;52.72
69503;SHT31;56704;54.242;12.442;2022-08-18T13:42:45;30.74;51.81
69503;SHT31;56704;54.242;12.442;2022-08-18T13:45:15;30.79;51.16
69503;SHT31;56704;54.242;12.442;2022-08-18T13:47:42;30.86;51.60
69503;SHT31;56704;54.242;12.442;2022-08-18T13:50:10;30.92;50.71
69503;SHT31;56704;54.242;12.442;2022-08-18T13:52:37;30.92;50.87
69503;SHT31;56704;54.242;12.442;2022-08-18T13:55:09;30.61;50.07
69503;SHT31;56704;54.242;12.442;2022-08-18T13:57:37;30.49;50.43
69503;SHT31;56704;54.242;12.442;2022-08-18T14:00:06;30.31;50.97
69503;SHT31;56704;54.242;12.442;2022-08-18T14:02:35;30.44;51.35
69503;SHT31;56704;54.242;12.442;2022-08-18T14:05:02;30.25;51.69
69503;SHT31;56704;54.242;12.442;2022-08-18T14:07:29;30.01;53.25
69503;SHT31;56704;54.242;12.442;2022-08-18T14:09:56;30.06;53.75
69503;SHT31;56704;54.242;12.442;2022-08-18T14:12:24;29.94;53.82
69503;SHT31;56704;54.242;12.442;2022-08-18T14:14:51;29.97;54.12
69503;SHT31;56704;54.242;12.442;2022-08-18T14:17:19;30.07;53.51
69503;SHT31;56704;54.242;12.442;2022-08-18T14:19:46;30.28;53.24
69503;SHT31;56704;54.242;12.442;2022-08-18T14:22:30;30.51;52.65
69503;SHT31;56704;54.242;12.442;2022-08-18T14:25:14;30.69;51.91
69503;SHT31;56704;54.242;12.442;2022-08-18T14:28:00;30.45;52.12
69503;SHT31;56704;54.242;12.442;2022-08-18T14:30:27;30.62;52.19
69503;SHT31;56704;54.242;12.442;2022-08-18T14:32:53;30.71;51.84
69503;SHT31;56704;54.242;12.442;2022-08-18T14:35:20;30.35;52.38
69503;SHT31;56704;54.242;12.442;2022-08-18T14:37:47;30.11;53.29
69503;SHT31;56704;54.242;12.442;2022-08-18T14:40:15;30.30;52.65
69503;SHT31;56704;54.242;12.442;2022-08-18T14:42:42;30.35;52.84
69503;SHT31;56704;54.242;12.442;2022-08-18T14:45:13;30.09;52.42
69503;SHT31;56704;54.242;12.442;2022-08-18T14:47:40;29.94;52.91
69503;SHT31;56704;54.242;12.442;2022-08-18T14:50:08;29.90;52.74
69503;SHT31;56704;54.242;12.442;2022-08-18T14:52:38;30.04;53.82
69503;SHT31;56704;54.242;12.442;2022-08-18T14:55:07;30.14;52.87
69503;SHT31;56704;54.242;12.442;2022-08-18T14:57:35;30.07;53.43
69503;SHT31;56704;54.242;12.442;2022-08-18T15:00:03;30.18;53.24
69503;SHT31;56704;54.242;12.442;2022-08-18T15:02:33;30.23;53.11
69503;SHT31;56704;54.242;12.442;2022-08-18T15:04:59;29.99;53.29
69503;SHT31;56704;54.242;12.442;2022-08-18T15:07:26;29.53;54.91
69503;SHT31;56704;54.242;12.442;2022-08-18T15:09:52;29.39;54.49
69503;SHT31;56704;54.242;12.442;2022-08-18T15:12:19;29.28;54.48
69503;SHT31;56704;54.242;12.442;2022-08-18T15:14:49;29.22;54.20
69503;SHT31;56704;54.242;12.442;2022-08-18T15:17:16;29.19;54.54
69503;SHT31;56704;54.242;12.442;2022-08-18T15:19:43;29.33;54.06
69503;SHT31;56704;54.242;12.442;2022-08-18T15:22:11;29.36;53.66
69503;SHT31;56704;54.242;12.442;2022-08-18T15:24:55;29.42;53.28
69503;SHT31;56704;54.242;12.442;2022-08-18T15:27:39;29.53;53.47
69503;SHT31;56704;54.242;12.442;2022-08-18T15:30:09;29.67;53.22
69503;SHT31;56704;54.242;12.442;2022-08-18T15:32:36;29.80;52.73
69503;SHT31;56704;54.242;12.442;2022-08-18T15:35:05;29.79;52.89
69503;SHT31;56704;54.242;12.442;2022-08-18T15:37:32;29.93;53.08
69503;SHT31;56704;54.242;12.442;2022-08-18T15:40:01;30.25;51.19
69503;SHT31;56704;54.242;12.442;2022-08-18T15:42:35;30.49;51.52
69503;SHT31;56704;54.242;12.442;2022-08-18T15:45:03;30.82;50.72
69503;SHT31;56704;54.242;12.442;2022-08-18T15:47:32;31.09;50.40
69503;SHT31;56704;54.242;12.442;2022-08-18T15:49:59;31.37;51.01
69503;SHT31;56704;54.242;12.442;2022-08-18T15:52:27;31.60;50.69
69503;SHT31;56704;54.242;12.442;2022-08-18T15:54:54;31.54;50.43
69503;SHT31;56704;54.242;12.442;2022-08-18T15:57:20;31.43;51.09